Overview Statistics Trail Chart Weather Telemetry Raw packets
 

This is the latest recevied weather packets stored in our database for station/object KG5MMT-15. If no packets are shown the sender has not sent any weather packets the latest 10 day(s).

<< 68 69 70 71 72 73 74 >>
Time Temp. Humidity Pressure Rain* Wind** Luminosity Snow
1788213471 21.67° C 64% 0 hPa 1.52 mm - - -
1788213171 23.33° C 52% 0 hPa 0.25 mm - - -
1788212871 23.33° C 42% 0 hPa 0 mm - - -
1788212571 23.89° C 41% 0 hPa 0 mm - - -
1788212271 23.89° C 41% 0 hPa 0 mm - - -
1788211971 23.33° C 41% 0 hPa 0 mm - - -
1788211671 23.33° C 42% 0 hPa 0 mm - - -
1788211371 23.33° C 43% 0 hPa 0 mm - - -
1788211071 22.78° C 44% 0 hPa 0 mm - - -
1788210771 23.33° C 43% 0 hPa 0 mm - - -
1788210472 23.33° C 42% 0 hPa 0 mm - - -
1788210171 23.89° C 40% 0 hPa 0 mm - - -
1788209871 25.56° C 36% 0 hPa 0 mm - - -
1788209571 26.67° C 32% 0 hPa 0 mm - - -
1788209272 27.22° C 25% 0 hPa 0 mm - - -
1788208971 27.22° C 25% 0 hPa 0 mm - - -
1788208671 27.78° C 26% 0 hPa 0 mm - - -
1788208371 27.78° C 26% 0 hPa 0 mm - - -
1788208072 28.33° C 25% 0 hPa 0 mm - - -
1788207772 27.78° C 26% 0 hPa 0 mm - - -
1788207472 27.78° C 26% 0 hPa 0 mm - - -
1788207172 27.22° C 27% 0 hPa 0 mm - - -
1788206872 27.78° C 26% 0 hPa 0 mm - - -
1788206572 27.22° C 29% 0 hPa 0 mm - - -
1788206272 27.22° C 28% 0 hPa 0 mm - - -

* Rain latest hour (hover to see other rain measurements)
** Current wind speed in m/s (hover to see current wind gust speed)